createdAt,value
2019-01-18T00:00:41.013Z,4.14
2019-01-18T00:01:40.998Z,4.18
2019-01-18T00:02:40.977Z,4.05
2019-01-18T00:03:40.961Z,4.15
2019-01-18T00:04:40.950Z,4.12
2019-01-18T00:05:40.929Z,4.12
2019-01-18T00:06:40.918Z,4.22
2019-01-18T00:07:40.899Z,4.15
2019-01-18T00:08:40.892Z,4.14
2019-01-18T00:09:40.917Z,4.16
2019-01-18T00:10:40.854Z,4.14
2019-01-18T00:11:40.840Z,4.09
2019-01-18T00:12:40.823Z,4.08
2019-01-18T00:13:40.811Z,4.08
2019-01-18T00:14:40.796Z,4.08
2019-01-18T00:15:40.778Z,4.08
2019-01-18T00:16:40.764Z,4.08
2019-01-18T00:17:40.747Z,4.14
2019-01-18T00:18:40.734Z,4.06
2019-01-18T00:19:40.720Z,4.11
2019-01-18T00:20:40.705Z,4.11
2019-01-18T00:21:40.450Z,4.08
2019-01-18T00:22:40.684Z,4.15
2019-01-18T00:23:40.657Z,4.15
2019-01-18T00:24:40.903Z,4.05
2019-01-18T00:25:40.630Z,4.11
2019-01-18T00:26:40.615Z,4.12
2019-01-18T00:27:40.597Z,4.12
2019-01-18T00:28:40.582Z,4.15
2019-01-18T00:29:40.568Z,4.05
2019-01-18T00:30:40.557Z,4.09
2019-01-18T00:31:40.540Z,4.12
2019-01-18T00:32:40.533Z,3.98
2019-01-18T00:33:40.507Z,4.05
2019-01-18T00:34:40.491Z,4
2019-01-18T00:35:40.478Z,4.09
2019-01-18T00:36:40.468Z,4.08
2019-01-18T00:37:40.446Z,3.98
2019-01-18T00:38:40.434Z,4.02
2019-01-18T00:39:40.418Z,3.91
2019-01-18T00:40:40.169Z,4
2019-01-18T00:41:40.390Z,3.96
2019-01-18T00:42:40.379Z,3.88
2019-01-18T00:43:40.359Z,4.04
2019-01-18T00:44:40.341Z,4
2019-01-18T00:45:40.328Z,3.97
2019-01-18T00:46:40.313Z,3.94
2019-01-18T00:47:40.295Z,4.02
2019-01-18T00:48:40.292Z,3.9
2019-01-18T00:49:40.268Z,3.94
2019-01-18T00:50:40.255Z,3.91
2019-01-18T00:51:40.238Z,3.96
2019-01-18T00:52:40.227Z,4
2019-01-18T00:53:40.206Z,3.98
2019-01-18T00:54:40.190Z,4.06
2019-01-18T00:55:40.425Z,4.04
2019-01-18T00:56:40.162Z,4.08
2019-01-18T00:57:40.152Z,4.09
2019-01-18T00:58:40.142Z,3.96
2019-01-18T00:59:41.176Z,3.96
2019-01-18T01:00:40.100Z,3.94
2019-01-18T01:01:40.085Z,3.97
2019-01-18T01:02:40.070Z,4
2019-01-18T01:03:40.054Z,4.04
2019-01-18T01:04:40.040Z,4.06
2019-01-18T01:05:40.030Z,4
2019-01-18T01:06:40.014Z,3.96
2019-01-18T01:07:39.997Z,4.02
2019-01-18T01:08:39.980Z,3.96
2019-01-18T01:09:39.964Z,4
2019-01-18T01:10:39.953Z,3.94
2019-01-18T01:11:39.936Z,3.93
2019-01-18T01:12:39.927Z,3.93
2019-01-18T01:13:39.903Z,4
2019-01-18T01:14:39.888Z,3.9
2019-01-18T01:15:39.875Z,3.87
2019-01-18T01:16:39.858Z,3.84
2019-01-18T01:17:39.841Z,3.86
2019-01-18T01:18:39.833Z,3.84
2019-01-18T01:19:39.814Z,3.76
2019-01-18T01:20:39.798Z,3.8
2019-01-18T01:21:39.782Z,3.69
2019-01-18T01:22:39.771Z,3.66
2019-01-18T01:23:39.751Z,3.68
2019-01-18T01:24:39.733Z,3.69
2019-01-18T01:25:39.735Z,3.65
2019-01-18T01:26:39.710Z,3.73
2019-01-18T01:27:39.688Z,3.65
2019-01-18T01:28:39.677Z,3.66
2019-01-18T01:29:45.398Z,3.62
2019-01-18T01:30:39.646Z,3.66
2019-01-18T01:31:39.631Z,3.6
2019-01-18T01:32:39.614Z,3.69
2019-01-18T01:33:39.598Z,3.65
2019-01-18T01:34:39.584Z,3.7
2019-01-18T01:35:39.569Z,3.72
2019-01-18T01:36:39.575Z,3.75
2019-01-18T01:37:39.543Z,3.66
2019-01-18T01:38:39.522Z,3.79
2019-01-18T01:39:39.504Z,3.83
2019-01-18T01:40:39.495Z,3.75
2019-01-18T01:41:39.476Z,3.75
2019-01-18T01:42:39.459Z,3.75
2019-01-18T01:43:39.447Z,3.69
2019-01-18T01:44:39.428Z,3.76
2019-01-18T01:45:39.413Z,3.7
2019-01-18T01:46:39.404Z,3.78
2019-01-18T01:47:39.384Z,3.78
2019-01-18T01:48:39.371Z,3.78
2019-01-18T01:49:39.354Z,3.76
2019-01-18T01:50:39.343Z,3.6
2019-01-18T01:51:39.322Z,3.61
2019-01-18T01:52:39.310Z,3.66
2019-01-18T01:53:39.297Z,3.58
2019-01-18T01:54:39.282Z,3.54
2019-01-18T01:55:39.320Z,3.55
2019-01-18T01:56:39.244Z,3.52
2019-01-18T01:57:39.229Z,3.52
2019-01-18T01:58:38.975Z,3.55
2019-01-18T01:59:39.198Z,3.52
2019-01-18T02:00:39.184Z,3.52
2019-01-18T02:01:39.169Z,3.58
2019-01-18T02:02:39.196Z,3.51
2019-01-18T02:03:39.142Z,3.48
2019-01-18T02:04:39.126Z,3.36
2019-01-18T02:05:39.105Z,3.47
2019-01-18T02:06:39.095Z,3.4
2019-01-18T02:07:39.077Z,3.33
2019-01-18T02:08:39.059Z,3.31
2019-01-18T02:09:39.045Z,3.21
2019-01-18T02:10:39.029Z,3.1
2019-01-18T02:11:39.024Z,2.9
2019-01-18T02:12:38.995Z,2.75
2019-01-18T02:13:38.983Z,2.59
2019-01-18T02:14:38.974Z,2.52
2019-01-18T02:15:38.967Z,2.34
2019-01-18T02:16:38.936Z,2.1
2019-01-18T02:17:38.920Z,2.14
2019-01-18T02:18:38.903Z,2.05
2019-01-18T02:19:38.891Z,1.9
2019-01-18T02:20:38.871Z,1.88
2019-01-18T02:21:38.860Z,1.88
2019-01-18T02:22:38.841Z,1.76
2019-01-18T02:23:38.821Z,1.79
2019-01-18T02:24:38.818Z,1.76
2019-01-18T02:25:38.792Z,1.76
2019-01-18T02:26:38.802Z,1.77
2019-01-18T02:27:38.760Z,1.68
2019-01-18T02:28:38.745Z,1.59
2019-01-18T02:29:38.729Z,1.66
2019-01-18T02:30:38.714Z,1.59
2019-01-18T02:31:38.694Z,1.52
2019-01-18T02:32:38.684Z,1.5
2019-01-18T02:33:38.664Z,1.58
2019-01-18T02:34:38.656Z,1.52
2019-01-18T02:35:38.646Z,1.52
2019-01-18T02:36:38.612Z,1.51
2019-01-18T02:37:38.596Z,1.68
2019-01-18T02:38:38.585Z,1.65
2019-01-18T02:39:38.911Z,1.55
2019-01-18T02:40:38.545Z,1.59
2019-01-18T02:41:38.533Z,1.54
2019-01-18T02:42:38.514Z,1.58
2019-01-18T02:43:38.498Z,1.6
2019-01-18T02:44:38.486Z,1.58
2019-01-18T02:45:38.483Z,1.52
2019-01-18T02:46:38.451Z,1.6
2019-01-18T02:47:38.433Z,1.54
2019-01-18T02:48:38.414Z,1.52
2019-01-18T02:49:38.400Z,1.52
2019-01-18T02:50:38.388Z,1.54
2019-01-18T02:51:38.362Z,1.51
2019-01-18T02:52:38.350Z,1.47
2019-01-18T02:53:38.358Z,1.45
2019-01-18T02:54:38.315Z,1.44
2019-01-18T02:55:38.303Z,1.51
2019-01-18T02:56:38.350Z,1.47
2019-01-18T02:57:38.278Z,1.42
2019-01-18T02:58:38.252Z,1.4
2019-01-18T02:59:38.237Z,1.4
2019-01-18T03:00:38.470Z,1.32
2019-01-18T03:01:38.199Z,1.37
2019-01-18T03:02:38.192Z,1.29
2019-01-18T03:03:38.205Z,1.26
2019-01-18T03:04:38.150Z,1.34
2019-01-18T03:05:38.129Z,1.34
2019-01-18T03:06:38.114Z,1.37
2019-01-18T03:07:38.096Z,1.34
2019-01-18T03:08:38.092Z,1.44
2019-01-18T03:09:38.065Z,1.41
2019-01-18T03:10:38.052Z,1.36
2019-01-18T03:11:38.032Z,1.48
2019-01-18T03:12:38.016Z,1.47
2019-01-18T03:13:38.009Z,1.42
2019-01-18T03:14:37.984Z,1.45
2019-01-18T03:15:37.961Z,1.5
2019-01-18T03:16:37.946Z,1.65
2019-01-18T03:17:37.930Z,1.55
2019-01-18T03:18:37.913Z,1.6
2019-01-18T03:19:37.901Z,1.58
2019-01-18T03:20:37.878Z,1.59
2019-01-18T03:21:37.870Z,1.6
2019-01-18T03:22:37.850Z,1.52
2019-01-18T03:23:37.828Z,1.51
2019-01-18T03:24:37.812Z,1.51
2019-01-18T03:25:37.800Z,1.33
2019-01-18T03:26:37.779Z,1.3
2019-01-18T03:27:37.759Z,1.3
2019-01-18T03:28:37.514Z,1.24
2019-01-18T03:29:37.741Z,1.27
2019-01-18T03:30:37.721Z,1.2
2019-01-18T03:31:37.990Z,1.29
2019-01-18T03:32:37.691Z,1.26
2019-01-18T03:33:37.669Z,1.24
2019-01-18T03:34:37.652Z,1.16
2019-01-18T03:35:37.666Z,1.12
2019-01-18T03:36:37.609Z,1.15
2019-01-18T03:37:37.597Z,1.15
2019-01-18T03:38:37.579Z,1.12
2019-01-18T03:39:37.563Z,1.04
2019-01-18T03:40:37.544Z,1.02
2019-01-18T03:41:37.546Z,1
2019-01-18T03:42:37.510Z,0.93
2019-01-18T03:43:37.491Z,0.91
2019-01-18T03:44:37.476Z,0.9
2019-01-18T03:45:37.466Z,0.84
2019-01-18T03:46:37.441Z,0.94
2019-01-18T03:47:37.425Z,0.87
2019-01-18T03:48:37.418Z,0.84
2019-01-18T03:49:37.412Z,0.84
2019-01-18T03:50:37.373Z,0.88
2019-01-18T03:51:37.359Z,0.9
2019-01-18T03:52:37.341Z,0.93
2019-01-18T03:53:37.323Z,0.88
2019-01-18T03:54:37.318Z,0.91
2019-01-18T03:55:37.294Z,0.84
2019-01-18T03:56:37.342Z,0.8
2019-01-18T03:57:37.257Z,0.88
2019-01-18T03:58:37.239Z,0.8
2019-01-18T03:59:36.982Z,0.75
2019-01-18T04:00:37.211Z,0.87
2019-01-18T04:01:37.194Z,0.8
2019-01-18T04:02:37.421Z,0.79
2019-01-18T04:03:37.157Z,0.78
2019-01-18T04:04:37.136Z,0.84
2019-01-18T04:05:37.120Z,0.86
2019-01-18T04:06:37.103Z,0.86
2019-01-18T04:07:37.082Z,0.88
2019-01-18T04:08:37.066Z,0.86
2019-01-18T04:09:37.047Z,0.86
2019-01-18T04:10:37.040Z,0.93
2019-01-18T04:11:37.012Z,0.93
2019-01-18T04:12:37.000Z,0.96
2019-01-18T04:13:36.992Z,0.9
2019-01-18T04:14:36.968Z,0.97
2019-01-18T04:15:36.948Z,0.97
2019-01-18T04:16:36.929Z,0.98
2019-01-18T04:17:36.915Z,1.02
2019-01-18T04:18:36.892Z,1.02
2019-01-18T04:19:36.878Z,1.02
2019-01-18T04:20:36.859Z,0.98
2019-01-18T04:21:36.845Z,1.06
2019-01-18T04:22:36.824Z,0.97
2019-01-18T04:23:36.808Z,1.08
2019-01-18T04:24:36.795Z,1.11
2019-01-18T04:25:36.780Z,1.12
2019-01-18T04:26:36.515Z,1.08
2019-01-18T04:27:36.743Z,1.12
2019-01-18T04:28:36.727Z,1.09
2019-01-18T04:29:36.710Z,1.15
2019-01-18T04:30:38.384Z,1.2
2019-01-18T04:31:36.671Z,1.29
2019-01-18T04:32:36.663Z,1.2
2019-01-18T04:33:36.636Z,1.37
2019-01-18T04:34:36.619Z,1.33
2019-01-18T04:35:36.606Z,1.4
2019-01-18T04:36:36.599Z,1.36
2019-01-18T04:37:36.574Z,1.36
2019-01-18T04:38:36.556Z,1.42
2019-01-18T04:39:36.537Z,1.44
2019-01-18T04:40:36.532Z,1.47
2019-01-18T04:41:36.499Z,1.5
2019-01-18T04:42:36.487Z,1.51
2019-01-18T04:43:36.511Z,1.58
2019-01-18T04:44:36.494Z,1.54
2019-01-18T04:45:36.435Z,1.52
2019-01-18T04:46:36.416Z,1.55
2019-01-18T04:47:36.403Z,1.58
2019-01-18T04:48:36.385Z,1.65
2019-01-18T04:49:36.371Z,1.63
2019-01-18T04:50:36.352Z,1.6
2019-01-18T04:51:36.334Z,1.59
2019-01-18T04:52:36.313Z,1.7
2019-01-18T04:53:36.302Z,1.8
2019-01-18T04:54:36.281Z,1.79
2019-01-18T04:55:36.262Z,1.72
2019-01-18T04:56:36.251Z,1.69
2019-01-18T04:57:36.235Z,1.84
2019-01-18T04:58:36.217Z,1.88
2019-01-18T04:59:36.198Z,1.79
2019-01-18T05:00:42.822Z,1.83
2019-01-18T05:01:36.162Z,1.83
2019-01-18T05:02:36.157Z,1.9
2019-01-18T05:03:36.130Z,1.91
2019-01-18T05:04:36.597Z,1.91
2019-01-18T05:05:36.107Z,2.03
2019-01-18T05:06:36.107Z,1.95
2019-01-18T05:07:36.066Z,2.02
2019-01-18T05:08:36.047Z,2.14
2019-01-18T05:09:36.041Z,2.16
2019-01-18T05:10:36.015Z,2.18
2019-01-18T05:11:36.004Z,2.1
2019-01-18T05:12:35.989Z,2.07
2019-01-18T05:13:35.967Z,1.9
2019-01-18T05:14:35.954Z,1.87
2019-01-18T05:15:35.935Z,1.88
2019-01-18T05:16:35.672Z,1.83
2019-01-18T05:17:35.909Z,1.9
2019-01-18T05:18:35.889Z,1.76
2019-01-18T05:19:35.873Z,1.83
2019-01-18T05:20:35.893Z,1.79
2019-01-18T05:21:35.833Z,1.66
2019-01-18T05:22:35.819Z,1.7
2019-01-18T05:23:35.800Z,1.7
2019-01-18T05:24:35.545Z,1.65
2019-01-18T05:25:35.770Z,1.63
2019-01-18T05:26:35.761Z,1.59
2019-01-18T05:27:35.739Z,1.59
2019-01-18T05:28:35.729Z,1.45
2019-01-18T05:29:35.705Z,1.42
2019-01-18T05:30:35.732Z,1.42
2019-01-18T05:31:35.684Z,1.3
2019-01-18T05:32:35.653Z,1.27
2019-01-18T05:33:35.395Z,1.16
2019-01-18T05:34:35.638Z,1.14
2019-01-18T05:35:35.603Z,1.09
2019-01-18T05:36:35.586Z,1.08
2019-01-18T05:37:35.572Z,1
2019-01-18T05:38:35.556Z,0.94
2019-01-18T05:39:35.535Z,0.96
2019-01-18T05:40:35.529Z,0.91
2019-01-18T05:41:35.502Z,0.94
2019-01-18T05:42:35.487Z,0.9
2019-01-18T05:43:35.470Z,0.93
2019-01-18T05:44:35.456Z,0.9
2019-01-18T05:45:35.432Z,0.79
2019-01-18T05:46:35.422Z,0.88
2019-01-18T05:47:35.401Z,0.91
2019-01-18T05:48:35.410Z,0.94
2019-01-18T05:49:35.369Z,0.98
2019-01-18T05:50:35.350Z,1
2019-01-18T05:51:35.336Z,1.08
2019-01-18T05:52:35.332Z,1.04
2019-01-18T05:53:35.310Z,1.12
2019-01-18T05:54:35.284Z,1.11
2019-01-18T05:55:35.271Z,1.14
2019-01-18T05:56:35.250Z,1.2
2019-01-18T05:57:35.236Z,1.29
2019-01-18T05:58:35.994Z,1.3
2019-01-18T05:59:35.198Z,1.34
2019-01-18T06:00:35.183Z,1.3
2019-01-18T06:01:35.330Z,1.32
2019-01-18T06:02:35.145Z,1.3
2019-01-18T06:03:35.130Z,1.27
2019-01-18T06:04:35.114Z,1.24
2019-01-18T06:05:35.095Z,1.3
2019-01-18T06:06:35.080Z,1.14
2019-01-18T06:07:35.064Z,1.14
2019-01-18T06:08:35.044Z,1.12
2019-01-18T06:09:35.102Z,1.15
2019-01-18T06:10:35.011Z,1.15
2019-01-18T06:11:35.003Z,1.14
2019-01-18T06:12:34.980Z,1.15
2019-01-18T06:13:34.962Z,1.14
2019-01-18T06:14:34.959Z,1.16
2019-01-18T06:15:34.926Z,1.2
2019-01-18T06:16:34.911Z,1.06
2019-01-18T06:17:34.893Z,1.14
2019-01-18T06:18:34.901Z,1.02
2019-01-18T06:19:34.858Z,1.09
2019-01-18T06:20:34.860Z,1.06
2019-01-18T06:21:34.828Z,1.06
2019-01-18T06:22:34.809Z,1.08
2019-01-18T06:23:34.791Z,1.15
2019-01-18T06:24:34.775Z,1.16
2019-01-18T06:25:34.759Z,1.09
2019-01-18T06:26:34.755Z,1.2
2019-01-18T06:27:34.735Z,1.32
2019-01-18T06:28:34.708Z,1.27
2019-01-18T06:29:34.693Z,1.34
2019-01-18T06:30:34.685Z,1.32
2019-01-18T06:31:34.654Z,1.4
2019-01-18T06:32:34.640Z,1.41
2019-01-18T06:33:34.795Z,1.41
2019-01-18T06:34:34.606Z,1.42
2019-01-18T06:35:34.606Z,1.4
2019-01-18T06:36:34.575Z,1.48
2019-01-18T06:37:34.311Z,1.51
2019-01-18T06:38:34.786Z,1.52
2019-01-18T06:39:34.537Z,1.48
2019-01-18T06:40:34.506Z,1.47
2019-01-18T06:41:34.489Z,1.47
2019-01-18T06:42:34.469Z,1.48
2019-01-18T06:43:34.454Z,1.45
2019-01-18T06:44:34.436Z,1.47
2019-01-18T06:45:34.423Z,1.51
2019-01-18T06:46:34.403Z,1.47
2019-01-18T06:47:34.387Z,1.41
2019-01-18T06:48:34.372Z,1.45
2019-01-18T06:49:34.354Z,1.47
2019-01-18T06:50:34.336Z,1.44
2019-01-18T06:51:34.357Z,1.42
2019-01-18T06:52:34.300Z,1.4
2019-01-18T06:53:34.290Z,1.42
2019-01-18T06:54:34.270Z,1.41
2019-01-18T06:55:34.253Z,1.29
2019-01-18T06:56:34.961Z,1.33
2019-01-18T06:57:34.227Z,1.37
2019-01-18T06:58:34.205Z,1.27
2019-01-18T06:59:34.183Z,1.18
2019-01-18T07:00:34.172Z,1.16
2019-01-18T07:01:34.148Z,1.11
2019-01-18T07:02:34.136Z,1.18
2019-01-18T07:03:34.117Z,1.16
2019-01-18T07:04:40.443Z,1.15
2019-01-18T07:05:34.084Z,1.11
2019-01-18T07:06:34.065Z,1.15
2019-01-18T07:07:34.049Z,1.2
2019-01-18T07:08:34.030Z,1.11
2019-01-18T07:09:34.265Z,1.14
2019-01-18T07:10:33.998Z,1.24
2019-01-18T07:11:34.772Z,1.15
2019-01-18T07:12:33.976Z,1.22
2019-01-18T07:13:33.950Z,1.16
2019-01-18T07:14:33.930Z,1.12
2019-01-18T07:15:33.918Z,1.14
2019-01-18T07:16:33.902Z,1.12
2019-01-18T07:17:33.881Z,1.12
2019-01-18T07:18:33.863Z,1.16
2019-01-18T07:19:33.849Z,1.14
2019-01-18T07:20:33.838Z,1
2019-01-18T07:21:33.812Z,1.05
2019-01-18T07:22:33.800Z,1.05
2019-01-18T07:23:34.353Z,0.97
2019-01-18T07:24:33.761Z,0.88
2019-01-18T07:25:33.749Z,0.93
2019-01-18T07:26:33.725Z,0.9
2019-01-18T07:27:33.718Z,0.91
2019-01-18T07:28:33.693Z,0.72
2019-01-18T07:29:33.677Z,0.86
2019-01-18T07:30:33.654Z,0.86
2019-01-18T07:31:33.641Z,0.8
2019-01-18T07:32:33.621Z,0.76
2019-01-18T07:33:33.606Z,0.65
2019-01-18T07:34:33.587Z,0.69
2019-01-18T07:35:33.574Z,0.65
2019-01-18T07:36:33.553Z,0.76
2019-01-18T07:37:33.542Z,0.65
2019-01-18T07:38:33.521Z,0.65
2019-01-18T07:39:33.520Z,0.57
2019-01-18T07:40:33.737Z,0.6
2019-01-18T07:41:33.469Z,0.57
2019-01-18T07:42:33.460Z,0.46
2019-01-18T07:43:33.437Z,0.49
2019-01-18T07:44:33.414Z,0.49
2019-01-18T07:45:33.402Z,0.39
2019-01-18T07:46:33.385Z,0.38
2019-01-18T07:47:33.365Z,0.42
2019-01-18T07:48:33.343Z,0.35
2019-01-18T07:49:33.331Z,0.35
2019-01-18T07:50:33.312Z,0.46
2019-01-18T07:51:33.295Z,0.44
2019-01-18T07:52:33.277Z,0.41
2019-01-18T07:53:33.260Z,0.38
2019-01-18T07:54:33.242Z,0.39
2019-01-18T07:55:33.227Z,0.36
2019-01-18T07:56:33.210Z,0.36
2019-01-18T07:57:32.946Z,0.44
2019-01-18T07:58:33.176Z,0.36
2019-01-18T07:59:33.153Z,0.38
2019-01-18T08:00:33.154Z,0.35
2019-01-18T08:01:33.129Z,0.41
2019-01-18T08:02:33.106Z,0.46
2019-01-18T08:03:33.085Z,0.39
2019-01-18T08:04:33.077Z,0.46
2019-01-18T08:05:33.053Z,0.47
2019-01-18T08:06:33.033Z,0.44
2019-01-18T08:07:33.020Z,0.49
2019-01-18T08:08:33.004Z,0.41
2019-01-18T08:09:32.982Z,0.47
2019-01-18T08:10:32.964Z,0.42
2019-01-18T08:11:33.195Z,0.47
2019-01-18T08:12:32.927Z,0.44
2019-01-18T08:13:32.912Z,0.5
2019-01-18T08:14:32.890Z,0.5
2019-01-18T08:15:32.888Z,0.53
2019-01-18T08:16:32.862Z,0.58
2019-01-18T08:17:32.844Z,0.5
2019-01-18T08:18:32.825Z,0.68
2019-01-18T08:19:32.810Z,0.61
2019-01-18T08:20:32.799Z,0.57
2019-01-18T08:21:32.773Z,0.62
2019-01-18T08:22:32.755Z,0.61
2019-01-18T08:23:32.738Z,0.62
2019-01-18T08:24:32.718Z,0.61
2019-01-18T08:25:32.710Z,0.57
2019-01-18T08:26:32.684Z,0.61
2019-01-18T08:27:32.667Z,0.7
2019-01-18T08:28:32.653Z,0.6
2019-01-18T08:29:32.632Z,0.76
2019-01-18T08:30:32.621Z,0.66
2019-01-18T08:31:33.866Z,0.66
2019-01-18T08:32:32.586Z,0.72
2019-01-18T08:33:32.568Z,0.8
2019-01-18T08:34:32.546Z,0.76
2019-01-18T08:35:32.526Z,0.79
2019-01-18T08:36:32.512Z,0.84
2019-01-18T08:37:32.498Z,0.79
2019-01-18T08:38:32.480Z,0.86
2019-01-18T08:39:32.461Z,0.8
2019-01-18T08:40:32.442Z,0.87
2019-01-18T08:41:32.428Z,0.86
2019-01-18T08:42:32.661Z,0.76
2019-01-18T08:43:32.391Z,0.86
2019-01-18T08:44:32.133Z,0.94
2019-01-18T08:45:32.361Z,0.87
2019-01-18T08:46:32.348Z,0.88
2019-01-18T08:47:32.323Z,0.94
2019-01-18T08:48:32.314Z,0.84
2019-01-18T08:49:32.287Z,0.86
2019-01-18T08:50:32.273Z,0.88
2019-01-18T08:51:32.255Z,0.88
2019-01-18T08:52:32.238Z,0.86
2019-01-18T08:53:32.216Z,0.9
2019-01-18T08:54:32.205Z,0.94
2019-01-18T08:55:32.190Z,0.94
2019-01-18T08:56:32.170Z,0.91
2019-01-18T08:57:32.154Z,0.94
2019-01-18T08:58:32.160Z,1.05
2019-01-18T08:59:32.120Z,1.08
2019-01-18T09:00:32.102Z,1.05
2019-01-18T09:01:37.982Z,1.02
2019-01-18T09:02:32.064Z,1.06
2019-01-18T09:03:32.050Z,1.05
2019-01-18T09:04:32.031Z,1
2019-01-18T09:05:32.015Z,1.08
2019-01-18T09:06:31.999Z,1.14
2019-01-18T09:07:31.984Z,1.2
2019-01-18T09:08:31.964Z,1.09
2019-01-18T09:09:31.951Z,1.16
2019-01-18T09:10:31.927Z,1.16
2019-01-18T09:11:31.912Z,1.12
2019-01-18T09:12:31.896Z,1.14
2019-01-18T09:13:31.878Z,1.27
2019-01-18T09:14:31.861Z,1.3
2019-01-18T09:15:31.849Z,1.2
2019-01-18T09:16:31.878Z,1.24
2019-01-18T09:17:31.813Z,1.34
2019-01-18T09:18:32.712Z,1.36
2019-01-18T09:19:31.780Z,1.41
2019-01-18T09:20:31.761Z,1.4
2019-01-18T09:21:31.744Z,1.48
2019-01-18T09:22:31.724Z,1.41
2019-01-18T09:23:31.711Z,1.47
2019-01-18T09:24:31.694Z,1.47
2019-01-18T09:25:31.679Z,1.48
2019-01-18T09:26:31.659Z,1.37
2019-01-18T09:27:31.642Z,1.47
2019-01-18T09:28:31.626Z,1.4
2019-01-18T09:29:31.613Z,1.41
2019-01-18T09:30:31.351Z,1.45
2019-01-18T09:31:31.580Z,1.41
2019-01-18T09:32:31.560Z,1.48
2019-01-18T09:33:31.540Z,1.52
2019-01-18T09:34:31.525Z,1.54
2019-01-18T09:35:31.521Z,1.51
2019-01-18T09:36:31.494Z,1.59
2019-01-18T09:37:31.484Z,1.55
2019-01-18T09:38:31.458Z,1.62
2019-01-18T09:39:31.438Z,1.58
2019-01-18T09:40:31.424Z,1.7
2019-01-18T09:41:31.408Z,1.73
2019-01-18T09:42:31.393Z,1.7
2019-01-18T09:43:31.376Z,1.69
2019-01-18T09:44:31.356Z,1.77
2019-01-18T09:45:31.340Z,1.69
2019-01-18T09:46:31.332Z,1.76
2019-01-18T09:47:31.317Z,1.8
2019-01-18T09:48:31.293Z,1.77
2019-01-18T09:49:31.280Z,1.79
2019-01-18T09:50:31.268Z,1.79
2019-01-18T09:51:31.242Z,1.79
2019-01-18T09:52:31.229Z,1.81
2019-01-18T09:53:31.213Z,1.81
2019-01-18T09:54:31.192Z,1.81
2019-01-18T09:55:31.177Z,1.88
2019-01-18T09:56:31.166Z,1.87
2019-01-18T09:57:31.145Z,1.88
2019-01-18T09:58:31.129Z,1.87
2019-01-18T09:59:31.113Z,1.95
2019-01-18T10:00:31.132Z,2.05
2019-01-18T10:01:31.080Z,1.98
2019-01-18T10:02:31.060Z,2.1
2019-01-18T10:03:31.085Z,2.1
2019-01-18T10:04:31.028Z,2.07
2019-01-18T10:05:31.014Z,2.16
2019-01-18T10:06:30.995Z,2.09
2019-01-18T10:07:30.982Z,2.07
2019-01-18T10:08:30.966Z,2.21
2019-01-18T10:09:30.947Z,2.24
2019-01-18T10:10:30.934Z,2.28
2019-01-18T10:11:30.958Z,2.35
2019-01-18T10:12:30.898Z,2.28
2019-01-18T10:13:31.938Z,2.36
2019-01-18T10:14:30.869Z,2.41
2019-01-18T10:15:30.853Z,2.38
2019-01-18T10:16:30.837Z,2.36
2019-01-18T10:17:30.819Z,2.36
2019-01-18T10:18:30.837Z,2.49
2019-01-18T10:19:30.785Z,2.59
2019-01-18T10:20:30.771Z,2.6
2019-01-18T10:21:30.753Z,2.57
2019-01-18T10:22:30.747Z,2.59
2019-01-18T10:23:30.721Z,2.59
2019-01-18T10:24:30.707Z,2.64
2019-01-18T10:25:30.691Z,2.71
2019-01-18T10:26:30.680Z,2.78
2019-01-18T10:27:30.661Z,2.64
2019-01-18T10:28:30.642Z,2.84
2019-01-18T10:29:33.043Z,2.79
2019-01-18T10:30:30.613Z,2.82
2019-01-18T10:31:30.597Z,2.85
2019-01-18T10:32:30.579Z,2.93
2019-01-18T10:33:30.561Z,2.96
2019-01-18T10:34:30.548Z,2.92
2019-01-18T10:35:30.527Z,2.95
2019-01-18T10:36:30.523Z,2.96
2019-01-18T10:37:30.502Z,2.95
2019-01-18T10:38:30.487Z,2.92
2019-01-18T10:39:30.477Z,3.1
2019-01-18T10:40:30.452Z,3.05
2019-01-18T10:41:30.436Z,3.03
2019-01-18T10:42:30.421Z,3.06
2019-01-18T10:43:30.405Z,3.05
2019-01-18T10:44:30.388Z,3
2019-01-18T10:45:30.383Z,3.14
2019-01-18T10:46:30.361Z,3.05
2019-01-18T10:47:30.591Z,3.13
2019-01-18T10:48:30.329Z,3.15
2019-01-18T10:49:30.313Z,3.05
2019-01-18T10:50:30.340Z,3.13
2019-01-18T10:51:30.285Z,3.06
2019-01-18T10:52:30.269Z,3.1
2019-01-18T10:53:30.280Z,3.11
2019-01-18T10:54:30.236Z,3.14
2019-01-18T10:55:30.217Z,3.03
2019-01-18T10:56:30.201Z,3.03
2019-01-18T10:57:30.187Z,3.13
2019-01-18T10:58:30.170Z,3.11
2019-01-18T10:59:30.154Z,3.1
2019-01-18T11:00:30.141Z,3.11
2019-01-18T11:01:30.126Z,3.13
2019-01-18T11:02:30.110Z,3.14
2019-01-18T11:03:30.091Z,3.17
2019-01-18T11:04:30.092Z,3.1
2019-01-18T11:05:30.073Z,3.08
2019-01-18T11:06:30.053Z,3.13
2019-01-18T11:07:30.030Z,3.13
2019-01-18T11:08:30.247Z,3.1
2019-01-18T11:09:30.002Z,3.1
2019-01-18T11:10:29.982Z,3.18
2019-01-18T11:11:29.965Z,3.13
2019-01-18T11:12:29.951Z,3.2
2019-01-18T11:13:29.935Z,3.21
2019-01-18T11:14:29.927Z,3.05
2019-01-18T11:15:29.912Z,3.2
2019-01-18T11:16:29.896Z,3.2
2019-01-18T11:17:29.880Z,3.15
2019-01-18T11:18:30.109Z,3.24
2019-01-18T11:19:29.845Z,3.26
2019-01-18T11:20:29.832Z,3.2
2019-01-18T11:21:29.812Z,3.21
2019-01-18T11:22:29.799Z,3.29
2019-01-18T11:23:29.783Z,3.29
2019-01-18T11:24:29.766Z,3.21
2019-01-18T11:25:36.482Z,3.31
2019-01-18T11:26:29.732Z,3.28
2019-01-18T11:27:29.718Z,3.36
2019-01-18T11:28:29.701Z,3.29
2019-01-18T11:29:29.688Z,3.28
2019-01-18T11:30:29.674Z,3.26
2019-01-18T11:31:29.657Z,3.32
2019-01-18T11:32:29.641Z,3.21
2019-01-18T11:33:29.626Z,3.26
2019-01-18T11:34:29.617Z,3.4
2019-01-18T11:35:29.594Z,3.31
2019-01-18T11:36:29.581Z,3.43
2019-01-18T11:37:29.563Z,3.45
2019-01-18T11:38:29.549Z,3.42
2019-01-18T11:39:29.538Z,3.5
2019-01-18T11:40:29.519Z,3.45
2019-01-18T11:41:29.525Z,3.55
2019-01-18T11:42:29.488Z,3.54
2019-01-18T11:43:29.473Z,3.51
2019-01-18T11:44:29.462Z,3.51
2019-01-18T11:45:29.441Z,3.61
2019-01-18T11:46:29.427Z,3.6
2019-01-18T11:47:30.784Z,3.62
2019-01-18T11:48:29.407Z,3.72
2019-01-18T11:49:29.632Z,3.61
2019-01-18T11:50:29.368Z,3.62
2019-01-18T11:51:29.356Z,3.62
2019-01-18T11:52:29.332Z,3.69
2019-01-18T11:53:29.318Z,3.62
2019-01-18T11:54:29.305Z,3.72
2019-01-18T11:55:29.292Z,3.69
2019-01-18T11:56:29.276Z,3.66
2019-01-18T11:57:29.260Z,3.76
2019-01-18T11:58:29.248Z,3.69
2019-01-18T11:59:29.236Z,3.68
2019-01-18T12:00:29.212Z,3.73
2019-01-18T12:01:29.207Z,3.6
2019-01-18T12:02:29.183Z,3.72
2019-01-18T12:03:29.164Z,3.66
2019-01-18T12:04:29.151Z,3.6
2019-01-18T12:05:29.137Z,3.69
2019-01-18T12:06:29.118Z,3.7
2019-01-18T12:07:29.106Z,3.66
2019-01-18T12:08:29.092Z,3.69
2019-01-18T12:09:29.084Z,3.75
2019-01-18T12:10:29.064Z,3.7
2019-01-18T12:11:30.239Z,3.65
2019-01-18T12:12:30.213Z,3.7
2019-01-18T12:13:29.020Z,3.76
2019-01-18T12:14:29.001Z,3.7
2019-01-18T12:15:28.987Z,3.75
2019-01-18T12:16:28.967Z,3.66
2019-01-18T12:17:28.960Z,3.66
2019-01-18T12:18:28.938Z,3.66
2019-01-18T12:19:28.925Z,3.72
2019-01-18T12:20:29.219Z,3.66
2019-01-18T12:21:28.895Z,3.72
2019-01-18T12:22:28.876Z,3.75
2019-01-18T12:23:28.861Z,3.75
2019-01-18T12:24:28.845Z,3.73
2019-01-18T12:25:28.832Z,3.7
2019-01-18T12:26:28.818Z,3.72
2019-01-18T12:27:28.802Z,3.66
2019-01-18T12:28:28.789Z,3.69
2019-01-18T12:29:28.774Z,3.69
2019-01-18T12:30:28.756Z,3.66
2019-01-18T12:31:28.739Z,3.69
2019-01-18T12:32:33.558Z,3.66
2019-01-18T12:33:28.714Z,3.58
2019-01-18T12:34:28.701Z,3.62
2019-01-18T12:35:28.680Z,3.65
2019-01-18T12:36:28.663Z,3.66
2019-01-18T12:37:28.649Z,3.62
2019-01-18T12:38:28.680Z,3.7
2019-01-18T12:39:28.619Z,3.62
2019-01-18T12:40:28.608Z,3.72
2019-01-18T12:41:28.588Z,3.68
2019-01-18T12:42:28.571Z,3.7
2019-01-18T12:43:28.555Z,3.69
2019-01-18T12:44:28.547Z,3.68
2019-01-18T12:45:28.524Z,3.58
2019-01-18T12:46:28.511Z,3.6
2019-01-18T12:47:28.496Z,3.6
2019-01-18T12:48:28.478Z,3.65
2019-01-18T12:49:28.469Z,3.58
2019-01-18T12:50:28.449Z,3.61
2019-01-18T12:51:28.684Z,3.62
2019-01-18T12:52:28.465Z,3.61
2019-01-18T12:53:29.466Z,3.57
2019-01-18T12:54:28.389Z,3.52
2019-01-18T12:55:28.373Z,3.55
2019-01-18T12:56:28.358Z,3.58
2019-01-18T12:57:28.341Z,3.61
2019-01-18T12:58:28.331Z,3.57
2019-01-18T12:59:28.086Z,3.62
2019-01-18T13:00:28.294Z,3.66
2019-01-18T13:01:28.282Z,3.57
2019-01-18T13:02:28.269Z,3.62
2019-01-18T13:03:28.251Z,3.61
2019-01-18T13:04:28.233Z,3.58
2019-01-18T13:05:28.216Z,3.6
2019-01-18T13:06:28.203Z,3.61
2019-01-18T13:07:28.191Z,3.61
2019-01-18T13:08:28.178Z,3.52
2019-01-18T13:09:28.160Z,3.51
2019-01-18T13:10:28.145Z,3.62
2019-01-18T13:11:28.141Z,3.54
2019-01-18T13:12:28.111Z,3.6
2019-01-18T13:13:28.105Z,3.57
2019-01-18T13:14:28.083Z,3.5
2019-01-18T13:15:28.064Z,3.61
2019-01-18T13:16:28.047Z,3.54
2019-01-18T13:17:28.038Z,3.61
2019-01-18T13:18:28.020Z,3.57
2019-01-18T13:19:28.002Z,3.57
2019-01-18T13:20:28.005Z,3.57
2019-01-18T13:21:27.973Z,3.57
2019-01-18T13:22:31.220Z,3.6
2019-01-18T13:23:27.940Z,3.5